Time;durP1;ratioP1;P1;durP2;ratioP2;P2;SDS_P1;SDS_P2;PMS_P1;PMS_P2;Temp;Humidity;BMP_temperature;BMP_pressure;BME280_temperature;BME280_humidity;BME280_pressure;Samples;Min_cycle;Max_cycle;Signal;HPM_P1;HPM_P2
2022/01/28 00:01:36;;;;;;;12.15;3.38;;;5.70;99.90;;;;;;5040042;28;20201;-69
2022/01/28 00:04:12;;;;;;;12.48;3.40;;;5.60;99.90;;;;;;5040405;28;20209;-70
2022/01/28 00:06:40;;;;;;;11.23;3.70;;;5.60;99.90;;;;;;5040443;28;20255;-68
2022/01/28 00:09:09;;;;;;;19.35;2.90;;;5.50;99.90;;;;;;5040148;28;20198;-69
2022/01/28 00:11:37;;;;;;;15.57;3.53;;;5.40;99.90;;;;;;5040742;28;20224;-70
2022/01/28 00:14:21;;;;;;;13.50;3.67;;;5.40;99.90;;;;;;5040343;28;20244;-69
2022/01/28 00:17:25;;;;;;;19.60;4.32;;;5.40;99.90;;;;;;5040735;28;20225;-69
2022/01/28 00:36:47;;;;;;;23.70;4.45;;;5.40;99.90;;;;;;5043222;28;20595;-69
2022/01/28 00:39:15;;;;;;;21.90;4.43;;;5.20;99.90;;;;;;5043352;28;20198;-70
2022/01/28 00:41:43;;;;;;;16.92;3.42;;;5.10;99.90;;;;;;5040270;28;20816;-69
2022/01/28 00:44:10;;;;;;;18.58;4.28;;;5.10;99.90;;;;;;5039496;28;20424;-70
2022/01/28 00:46:38;;;;;;;12.98;3.25;;;5.20;99.90;;;;;;5039174;28;20220;-70
2022/01/28 00:49:08;;;;;;;18.55;3.67;;;5.20;99.90;;;;;;5039647;28;20221;-71
2022/01/28 00:51:35;;;;;;;14.65;4.40;;;5.10;99.90;;;;;;5038905;28;20792;-69
2022/01/28 00:54:03;;;;;;;14.90;3.60;;;5.20;99.90;;;;;;5039159;28;20197;-71
2022/01/28 00:56:31;;;;;;;11.52;3.70;;;5.10;99.90;;;;;;5039078;28;20216;-71
2022/01/28 00:58:59;;;;;;;15.70;3.30;;;5.20;99.90;;;;;;5039459;28;20211;-71
2022/01/28 01:01:29;;;;;;;13.20;3.20;;;5.10;99.90;;;;;;5039315;28;20212;-71
2022/01/28 01:03:57;;;;;;;16.52;3.63;;;5.10;99.90;;;;;;5038979;28;20437;-72
2022/01/28 01:06:27;;;;;;;20.75;4.10;;;5.10;99.90;;;;;;5039013;28;20202;-71
2022/01/28 01:08:54;;;;;;;13.52;4.25;;;5.10;99.90;;;;;;5038938;28;20876;-69
2022/01/28 01:11:24;;;;;;;15.80;4.15;;;5.00;99.90;;;;;;5039316;28;20197;-70
2022/01/28 01:13:52;;;;;;;20.63;4.38;;;4.90;99.90;;;;;;5039579;28;20240;-70
2022/01/28 01:16:27;;;;;;;18.60;4.43;;;5.10;99.90;;;;;;5038881;28;20201;-69
2022/01/28 01:19:11;;;;;;;20.63;3.80;;;5.10;99.90;;;;;;5038672;28;20208;-70
2022/01/28 01:21:42;;;;;;;12.48;2.80;;;5.20;99.90;;;;;;5039279;28;20197;-69
2022/01/28 01:24:20;;;;;;;14.00;4.15;;;5.20;99.90;;;;;;5038859;28;20201;-68
2022/01/28 01:26:48;;;;;;;20.10;6.70;;;5.20;99.90;;;;;;5038381;28;20224;-70
2022/01/28 01:29:19;;;;;;;24.90;5.40;;;5.10;99.90;;;;;;5038862;28;20221;-69
2022/01/28 01:31:47;;;;;;;10.68;4.00;;;5.10;99.90;;;;;;5038972;28;20198;-69
2022/01/28 01:34:18;;;;;;;13.93;3.58;;;5.00;99.90;;;;;;5039143;28;20204;-70
2022/01/28 01:36:47;;;;;;;16.33;3.97;;;4.90;99.90;;;;;;5039743;28;20205;-71
2022/01/28 01:39:22;;;;;;;18.80;4.13;;;4.90;99.90;;;;;;5039532;28;20673;-70
2022/01/28 01:41:56;;;;;;;26.25;5.43;;;5.00;99.90;;;;;;5055362;28;20207;-68
2022/01/28 01:44:32;;;;;;;17.23;3.83;;;5.20;99.90;;;;;;5064938;28;20281;-68
2022/01/28 01:52:01;;;;;;;19.58;3.92;;;5.20;99.90;;;;;;5043151;28;20433;-71
2022/01/28 01:52:56;;;;;;;15.60;4.20;;;5.10;99.90;;;;;;5042542;28;20198;-70
2022/01/28 01:55:25;;;;;;;11.93;3.33;;;5.00;99.90;;;;;;5043557;28;20221;-71
2022/01/28 01:57:53;;;;;;;13.90;3.42;;;4.80;99.90;;;;;;5043299;28;20222;-71
2022/01/28 02:00:21;;;;;;;23.15;5.72;;;4.80;99.90;;;;;;5044159;28;20206;-72
2022/01/28 02:02:49;;;;;;;15.05;3.92;;;4.70;99.90;;;;;;5044054;28;20202;-71
2022/01/28 02:05:17;;;;;;;9.35;3.60;;;4.70;99.90;;;;;;5043866;28;20209;-69
2022/01/28 02:07:46;;;;;;;17.23;4.85;;;4.70;99.90;;;;;;5043746;28;20720;-67
2022/01/28 02:10:15;;;;;;;22.42;3.60;;;4.80;99.90;;;;;;5042791;28;20216;-67
2022/01/28 02:12:48;;;;;;;21.58;3.53;;;4.80;99.90;;;;;;5042719;28;20213;-69
2022/01/28 02:15:17;;;;;;;11.38;3.88;;;4.90;99.90;;;;;;5042501;28;20201;-68
2022/01/28 02:17:45;;;;;;;20.52;3.95;;;5.00;99.90;;;;;;5043606;28;20221;-69
2022/01/28 02:20:20;;;;;;;18.75;4.28;;;5.10;99.90;;;;;;5045902;28;20201;-69
2022/01/28 02:22:48;;;;;;;13.00;3.58;;;5.20;99.90;;;;;;5044709;28;20197;-68
2022/01/28 02:25:23;;;;;;;17.20;4.35;;;5.30;99.90;;;;;;5042768;28;20212;-68
2022/01/28 02:27:51;;;;;;;11.85;3.75;;;5.20;99.90;;;;;;5045328;28;20257;-69
2022/01/28 02:30:19;;;;;;;23.20;5.30;;;5.10;99.90;;;;;;5043722;28;20206;-69
2022/01/28 02:32:49;;;;;;;20.50;4.20;;;5.00;99.90;;;;;;5042240;28;20208;-70
2022/01/28 02:35:18;;;;;;;23.45;3.83;;;4.90;99.90;;;;;;5048653;28;20198;-70
2022/01/28 02:37:46;;;;;;;14.05;2.92;;;4.80;99.90;;;;;;5049840;28;20232;-69
2022/01/28 02:40:15;;;;;;;13.73;3.63;;;4.60;99.90;;;;;;5049667;28;20205;-69
2022/01/28 02:42:54;;;;;;;17.08;3.90;;;4.30;99.90;;;;;;5046128;28;20696;-69
2022/01/28 02:45:28;;;;;;;19.23;4.40;;;4.20;99.90;;;;;;5045217;28;20202;-70
2022/01/28 02:48:00;;;;;;;13.15;4.85;;;4.10;99.90;;;;;;5047808;28;20229;-72
2022/01/28 02:50:36;;;;;;;13.02;3.03;;;4.00;99.90;;;;;;5045299;28;20749;-71
2022/01/28 02:53:07;;;;;;;19.83;4.22;;;3.90;99.90;;;;;;5042049;28;20577;-70
2022/01/28 02:55:39;;;;;;;14.32;3.58;;;3.90;99.90;;;;;;5041872;28;20209;-70
2022/01/28 02:58:18;;;;;;;19.50;3.53;;;4.00;99.90;;;;;;5042021;28;20217;-70
2022/01/28 03:00:47;;;;;;;16.95;2.90;;;4.00;99.90;;;;;;5041672;28;20192;-70
2022/01/28 03:03:18;;;;;;;18.88;4.70;;;4.10;99.90;;;;;;5043442;28;20213;-69
2022/01/28 03:05:47;;;;;;;15.68;3.40;;;4.10;99.90;;;;;;5049605;28;20244;-69
2022/01/28 03:08:15;;;;;;;8.90;4.18;;;4.30;99.90;;;;;;5050768;28;20253;-71
2022/01/28 03:10:53;;;;;;;11.20;3.97;;;4.40;99.90;;;;;;5045784;28;20201;-71
2022/01/28 03:13:35;;;;;;;15.75;4.63;;;4.50;99.90;;;;;;5040902;28;20225;-70
2022/01/28 03:16:10;;;;;;;14.57;4.43;;;4.60;99.90;;;;;;5040999;28;20289;-69
2022/01/28 03:18:49;;;;;;;10.77;3.40;;;4.70;99.90;;;;;;5040823;28;20216;-70
2022/01/28 03:21:24;;;;;;;16.35;3.78;;;4.80;99.90;;;;;;5041038;28;20236;-69
2022/01/28 03:23:53;;;;;;;21.83;5.20;;;5.00;99.90;;;;;;5040274;28;20209;-70
2022/01/28 03:26:23;;;;;;;13.48;3.40;;;5.10;99.90;;;;;;5040997;28;20212;-70
2022/01/28 03:28:56;;;;;;;15.80;3.95;;;5.00;99.90;;;;;;5040641;28;20213;-69
2022/01/28 03:31:24;;;;;;;16.15;4.25;;;5.20;99.90;;;;;;5041274;28;20205;-70
2022/01/28 03:33:52;;;;;;;34.60;5.07;;;5.00;99.90;;;;;;5040454;28;20267;-69
2022/01/28 03:36:21;;;;;;;22.27;6.18;;;4.90;99.90;;;;;;5040430;28;20198;-71
2022/01/28 03:38:49;;;;;;;16.52;4.38;;;4.70;99.90;;;;;;5040931;28;20218;-69
2022/01/28 03:41:17;;;;;;;17.92;4.18;;;4.70;99.90;;;;;;5040726;28;20205;-69
2022/01/28 03:43:46;;;;;;;13.20;3.65;;;4.60;99.90;;;;;;5040949;28;20202;-69
2022/01/28 03:46:14;;;;;;;13.98;4.18;;;4.50;99.90;;;;;;5041117;28;20209;-70
2022/01/28 03:48:43;;;;;;;11.70;3.33;;;4.40;99.90;;;;;;5040705;28;20237;-68
2022/01/28 03:51:11;;;;;;;15.13;3.17;;;4.40;99.90;;;;;;5040483;28;20205;-67
2022/01/28 03:53:40;;;;;;;18.95;4.80;;;4.20;99.90;;;;;;5040023;28;20201;-67
2022/01/28 03:56:08;;;;;;;20.08;3.42;;;4.20;99.90;;;;;;5040581;28;20205;-68
2022/01/28 03:58:36;;;;;;;17.50;3.70;;;4.10;99.90;;;;;;5041511;28;20232;-67
2022/01/28 04:01:09;;;;;;;16.48;5.10;;;4.10;99.90;;;;;;5041362;28;20198;-66
2022/01/28 04:03:42;;;;;;;20.15;4.38;;;4.00;99.90;;;;;;5042330;28;20205;-66
2022/01/28 04:11:55;;;;;;;18.15;4.65;;;4.20;99.90;;;;;;5040546;28;20198;-67
2022/01/28 04:14:38;;;;;;;7.47;3.10;;;4.30;99.90;;;;;;5039688;28;20202;-68
2022/01/28 04:17:21;;;;;;;19.35;4.43;;;4.40;99.90;;;;;;5039751;28;20231;-66
2022/01/28 04:19:50;;;;;;;20.05;4.53;;;4.50;99.90;;;;;;5039815;28;20208;-68
2022/01/28 04:22:19;;;;;;;13.07;4.35;;;4.50;99.90;;;;;;5040013;28;20208;-68
2022/01/28 04:24:48;;;;;;;11.13;3.60;;;4.50;99.90;;;;;;5039663;28;20259;-68
2022/01/28 04:27:16;;;;;;;19.30;4.35;;;4.50;99.90;;;;;;5040375;28;20261;-69
2022/01/28 04:29:44;;;;;;;11.48;3.53;;;4.50;99.90;;;;;;5039969;28;20236;-67
2022/01/28 04:32:12;;;;;;;23.73;3.95;;;4.40;99.90;;;;;;5039811;28;20204;-69
2022/01/28 04:34:41;;;;;;;18.98;4.43;;;4.30;99.90;;;;;;5040304;28;20201;-68
2022/01/28 04:37:17;;;;;;;18.65;3.80;;;4.30;99.90;;;;;;5040811;28;20218;-67
2022/01/28 04:39:51;;;;;;;26.35;4.40;;;4.30;99.90;;;;;;5042446;28;20198;-66
2022/01/28 04:42:35;;;;;;;12.73;4.25;;;4.20;99.90;;;;;;5041477;28;20205;-68
2022/01/28 04:45:11;;;;;;;16.60;3.72;;;4.30;99.90;;;;;;5040198;28;20812;-68
2022/01/28 04:47:45;;;;;;;20.00;3.50;;;4.30;99.90;;;;;;5040495;28;20225;-67
2022/01/28 04:50:22;;;;;;;16.50;3.92;;;4.30;99.90;;;;;;5039528;28;20229;-69
2022/01/28 04:55:48;;;;;;;14.68;3.45;;;4.50;99.90;;;;;;5037272;28;20761;-68
2022/01/28 04:58:36;;;;;;;12.25;3.08;;;4.60;99.90;;;;;;5040312;28;20222;-67
2022/01/28 05:01:27;;;;;;;17.42;3.60;;;4.70;99.90;;;;;;5039408;28;20717;-69
2022/01/28 05:04:08;;;;;;;17.92;3.08;;;4.60;99.90;;;;;;5039907;28;20292;-68
2022/01/28 05:07:09;;;;;;;16.17;3.03;;;4.60;99.90;;;;;;5038792;28;20682;-68
2022/01/28 05:12:52;;;;;;;18.58;3.95;;;4.80;99.90;;;;;;5039815;28;20201;-68
2022/01/28 05:26:27;;;;;;;15.57;3.15;;;5.00;99.90;;;;;;5039096;28;20207;-69
2022/01/28 05:28:55;;;;;;;14.55;2.80;;;5.10;99.90;;;;;;5039046;28;20201;-67
2022/01/28 05:31:24;;;;;;;18.27;3.88;;;5.10;99.90;;;;;;5038846;28;20253;-68
2022/01/28 05:33:52;;;;;;;17.27;4.00;;;5.10;99.90;;;;;;5038877;28;20202;-69
2022/01/28 05:36:20;;;;;;;16.45;3.25;;;5.00;99.90;;;;;;5039054;28;20212;-69
2022/01/28 05:38:48;;;;;;;11.07;3.20;;;5.00;99.90;;;;;;5038762;28;20217;-70
2022/01/28 05:41:16;;;;;;;25.27;4.03;;;5.00;99.90;;;;;;5038508;28;20410;-65
2022/01/28 05:43:44;;;;;;;15.48;4.00;;;4.90;99.90;;;;;;5038457;28;20206;-69
2022/01/28 05:46:13;;;;;;;18.45;4.40;;;4.80;99.90;;;;;;5038899;28;20292;-68
2022/01/28 05:48:42;;;;;;;21.30;3.78;;;4.70;99.90;;;;;;5038052;28;20244;-70
2022/01/28 05:51:11;;;;;;;15.82;4.15;;;4.70;99.90;;;;;;5040985;28;20221;-69
2022/01/28 05:53:39;;;;;;;19.17;3.88;;;4.70;99.90;;;;;;5037580;28;20219;-68
2022/01/28 05:56:07;;;;;;;11.82;3.50;;;4.80;99.90;;;;;;5038978;28;20209;-69
2022/01/28 05:58:35;;;;;;;12.70;4.43;;;5.00;99.90;;;;;;5038327;28;20301;-69
2022/01/28 06:01:03;;;;;;;24.70;4.18;;;5.00;99.90;;;;;;5044506;28;20742;-68
2022/01/28 06:03:31;;;;;;;13.65;3.42;;;5.10;99.90;;;;;;5046671;28;20259;-69
2022/01/28 06:06:00;;;;;;;14.93;4.25;;;5.10;99.90;;;;;;5042794;28;20288;-69
2022/01/28 06:08:28;;;;;;;17.15;4.65;;;5.20;99.90;;;;;;5040269;28;20281;-69
2022/01/28 06:10:56;;;;;;;16.83;3.70;;;5.20;99.90;;;;;;5038352;28;20224;-67
2022/01/28 06:13:23;;;;;;;12.50;3.58;;;5.20;99.90;;;;;;5038087;28;20209;-68
2022/01/28 06:15:55;;;;;;;25.25;3.83;;;5.10;99.90;;;;;;5038249;28;20198;-67
2022/01/28 06:18:23;;;;;;;16.02;4.25;;;5.10;99.90;;;;;;5039116;28;20230;-66
2022/01/28 06:20:51;;;;;;;18.17;3.45;;;5.20;99.90;;;;;;5039692;28;20198;-68
2022/01/28 06:23:20;;;;;;;15.65;3.60;;;5.20;99.90;;;;;;5038842;28;20197;-67
2022/01/28 06:25:50;;;;;;;18.48;4.25;;;5.20;99.90;;;;;;5040072;28;20216;-67
2022/01/28 06:28:18;;;;;;;17.17;3.65;;;5.30;99.90;;;;;;5039531;28;20260;-67
2022/01/28 06:30:46;;;;;;;17.83;4.47;;;5.30;99.90;;;;;;5058446;28;20270;-66
2022/01/28 06:33:15;;;;;;;15.88;3.67;;;5.20;99.90;;;;;;5066918;28;20224;-67
2022/01/28 06:35:45;;;;;;;15.55;3.33;;;5.30;99.90;;;;;;5045271;28;20730;-66
2022/01/28 06:38:14;;;;;;;22.73;5.57;;;5.20;99.90;;;;;;5046304;28;20290;-66
2022/01/28 06:40:43;;;;;;;11.13;3.08;;;5.20;99.90;;;;;;5046676;28;20198;-67
2022/01/28 06:43:14;;;;;;;12.73;4.00;;;5.10;99.90;;;;;;5042148;28;20202;-66
2022/01/28 06:45:43;;;;;;;17.48;3.92;;;5.20;99.90;;;;;;5041862;28;20206;-67
2022/01/28 06:48:11;;;;;;;13.30;3.30;;;5.30;99.90;;;;;;5039264;28;20224;-67
2022/01/28 06:50:42;;;;;;;10.95;3.78;;;5.20;99.90;;;;;;5042454;28;20217;-68
2022/01/28 06:53:10;;;;;;;10.68;2.70;;;5.20;99.90;;;;;;5042051;28;20213;-66
2022/01/28 06:55:39;;;;;;;11.35;2.50;;;5.20;99.90;;;;;;5040941;28;20304;-68
2022/01/28 06:58:09;;;;;;;17.67;3.85;;;5.30;99.90;;;;;;5041179;28;20228;-69
2022/01/28 07:00:40;;;;;;;14.13;4.00;;;5.30;99.90;;;;;;5041981;28;20192;-67
2022/01/28 07:03:10;;;;;;;12.18;3.42;;;5.20;99.90;;;;;;5041454;28;20241;-69
2022/01/28 07:05:39;;;;;;;12.25;3.50;;;5.30;99.90;;;;;;5041713;28;20240;-67
2022/01/28 07:08:08;;;;;;;10.73;2.80;;;5.20;99.90;;;;;;5041938;28;20313;-68
2022/01/28 07:10:36;;;;;;;10.98;3.10;;;5.20;99.90;;;;;;5042539;28;20204;-65
2022/01/28 07:13:04;;;;;;;12.43;4.15;;;5.10;99.90;;;;;;5042357;28;20241;-68
2022/01/28 07:15:33;;;;;;;15.05;4.47;;;5.00;99.90;;;;;;5042781;28;20202;-68
2022/01/28 07:18:03;;;;;;;15.13;3.50;;;4.90;99.90;;;;;;5043445;28;20929;-67
2022/01/28 07:20:33;;;;;;;5.80;3.50;;;4.90;99.90;;;;;;5045432;28;20672;-64
2022/01/28 07:23:02;;;;;;;13.95;4.55;;;4.90;99.90;;;;;;5044940;28;20206;-67
2022/01/28 07:25:30;;;;;;;14.75;3.35;;;4.80;99.90;;;;;;5048753;28;20206;-67
2022/01/28 07:27:58;;;;;;;26.10;4.75;;;4.70;99.90;;;;;;5041676;28;20221;-68
2022/01/28 07:30:27;;;;;;;18.85;4.13;;;4.70;99.90;;;;;;5041127;28;20212;-66
2022/01/28 07:32:56;;;;;;;18.40;3.50;;;4.60;99.90;;;;;;5040642;28;20218;-68
2022/01/28 07:35:24;;;;;;;21.73;4.55;;;4.60;99.90;;;;;;5040880;28;20217;-68
2022/01/28 07:37:51;;;;;;;15.35;4.25;;;4.60;99.90;;;;;;5040923;28;20222;-69
2022/01/28 07:40:19;;;;;;;14.05;4.13;;;4.60;99.90;;;;;;5040269;28;20201;-68
2022/01/28 07:42:47;;;;;;;19.48;4.00;;;4.60;99.90;;;;;;5039876;28;20372;-67
2022/01/28 07:45:15;;;;;;;13.48;3.63;;;4.50;99.90;;;;;;5047312;28;20269;-68
2022/01/28 07:47:44;;;;;;;14.75;4.28;;;4.50;99.90;;;;;;5046668;28;20226;-68
2022/01/28 07:50:14;;;;;;;21.27;4.60;;;4.50;99.90;;;;;;5047245;28;20201;-68
2022/01/28 07:52:42;;;;;;;11.95;3.80;;;4.60;99.90;;;;;;5048481;28;20296;-67
2022/01/28 07:55:12;;;;;;;21.73;4.05;;;4.60;99.90;;;;;;5047812;28;20285;-66
2022/01/28 07:57:42;;;;;;;13.35;3.75;;;4.60;99.90;;;;;;5047361;28;20228;-69
2022/01/28 08:00:12;;;;;;;27.38;5.47;;;4.60;99.90;;;;;;5047693;28;20216;-68
2022/01/28 08:02:42;;;;;;;23.75;4.38;;;4.50;99.90;;;;;;5044434;28;20256;-66
2022/01/28 08:05:11;;;;;;;18.10;4.78;;;4.40;99.90;;;;;;5043334;28;20196;-70
2022/01/28 08:07:40;;;;;;;23.20;3.85;;;4.40;99.90;;;;;;5041275;28;20217;-66
2022/01/28 08:10:09;;;;;;;20.10;3.63;;;4.50;99.90;;;;;;5041472;28;20198;-68
2022/01/28 08:12:45;;;;;;;23.58;4.18;;;4.50;99.90;;;;;;5040839;28;20228;-67
2022/01/28 08:15:15;;;;;;;21.95;4.72;;;4.50;99.90;;;;;;5041354;28;20244;-71
2022/01/28 08:17:43;;;;;;;28.63;6.43;;;4.40;99.90;;;;;;5041096;28;20217;-66
2022/01/28 08:20:12;;;;;;;10.55;4.55;;;4.40;99.90;;;;;;5041186;28;20300;-64
2022/01/28 08:22:49;;;;;;;17.00;4.88;;;4.30;99.90;;;;;;5041302;28;20210;-66
2022/01/28 08:25:20;;;;;;;26.45;6.00;;;4.40;99.90;;;;;;5042816;28;20261;-66
2022/01/28 08:27:50;;;;;;;17.60;4.20;;;4.40;99.90;;;;;;5043671;28;20408;-67
2022/01/28 08:30:21;;;;;;;18.65;4.97;;;4.50;99.90;;;;;;5042666;28;20484;-65
2022/01/28 08:32:50;;;;;;;19.30;4.78;;;4.50;99.90;;;;;;5040282;28;20316;-65
2022/01/28 08:35:23;;;;;;;19.67;4.28;;;4.50;99.90;;;;;;5040146;28;20202;-65
2022/01/28 08:37:52;;;;;;;13.48;3.60;;;4.40;99.90;;;;;;5040559;28;20235;-67
2022/01/28 08:40:20;;;;;;;18.67;5.35;;;4.50;99.90;;;;;;5036677;28;20217;-64
2022/01/28 08:42:48;;;;;;;31.38;6.32;;;4.50;99.90;;;;;;5038424;28;20198;-68
2022/01/28 08:45:16;;;;;;;22.02;4.30;;;4.50;99.90;;;;;;5039261;28;20722;-65
2022/01/28 08:47:45;;;;;;;14.48;5.10;;;4.60;99.90;;;;;;5040676;28;20278;-64
2022/01/28 08:50:13;;;;;;;27.73;5.85;;;4.60;99.90;;;;;;5042282;28;20233;-64
2022/01/28 08:52:46;;;;;;;26.67;5.25;;;4.50;99.90;;;;;;5042539;28;20591;-66
2022/01/28 08:55:17;;;;;;;16.00;4.78;;;4.60;99.90;;;;;;5058261;28;20186;-66
2022/01/28 08:57:46;;;;;;;16.48;4.45;;;4.60;99.90;;;;;;5062057;28;20361;-65
2022/01/28 09:00:18;;;;;;;22.80;5.18;;;4.60;99.90;;;;;;5040049;28;20205;-65
2022/01/28 09:02:46;;;;;;;21.80;4.40;;;4.60;99.90;;;;;;5041541;28;20197;-67
2022/01/28 09:05:14;;;;;;;23.50;5.32;;;4.70;99.90;;;;;;5041532;28;20201;-65
2022/01/28 09:07:42;;;;;;;23.55;4.40;;;4.70;99.90;;;;;;5041108;28;20224;-66
2022/01/28 09:10:17;;;;;;;25.80;5.32;;;4.60;99.90;;;;;;5040778;28;20291;-66
2022/01/28 09:12:49;;;;;;;14.27;4.40;;;4.70;99.90;;;;;;5042048;28;20248;-66
2022/01/28 09:15:17;;;;;;;14.82;4.28;;;4.80;99.90;;;;;;5040290;28;20201;-66
2022/01/28 09:17:57;;;;;;;28.10;6.53;;;4.80;99.90;;;;;;5041118;28;20238;-65
2022/01/28 09:20:32;;;;;;;16.20;4.10;;;4.90;99.90;;;;;;5040773;28;20201;-66
2022/01/28 09:23:01;;;;;;;28.38;4.45;;;4.90;99.90;;;;;;5041459;28;20206;-65
2022/01/28 09:25:30;;;;;;;18.85;5.03;;;4.90;99.90;;;;;;5041129;28;20205;-64
2022/01/28 09:27:59;;;;;;;19.90;4.85;;;4.90;99.90;;;;;;5042440;28;20228;-66
2022/01/28 09:30:27;;;;;;;12.50;4.05;;;4.90;99.90;;;;;;5045536;28;20209;-67
2022/01/28 09:32:56;;;;;;;15.35;3.92;;;4.90;99.90;;;;;;5046527;28;20308;-67
2022/01/28 09:35:24;;;;;;;30.08;4.45;;;4.90;99.90;;;;;;5042093;28;20212;-65
2022/01/28 09:37:52;;;;;;;24.70;5.28;;;5.00;99.90;;;;;;5041866;28;20245;-67
2022/01/28 09:40:20;;;;;;;13.82;3.13;;;4.90;99.90;;;;;;5041836;28;20208;-67
2022/01/28 09:42:51;;;;;;;16.00;3.88;;;5.00;99.90;;;;;;5040709;28;20879;-66
2022/01/28 09:45:23;;;;;;;14.60;3.83;;;5.20;99.90;;;;;;5042072;28;20232;-64
2022/01/28 09:47:53;;;;;;;17.35;4.53;;;5.20;99.90;;;;;;5042056;28;20233;-64
2022/01/28 09:50:22;;;;;;;24.90;4.47;;;5.30;99.90;;;;;;5044240;28;20194;-64
2022/01/28 09:52:50;;;;;;;14.48;3.78;;;5.30;99.90;;;;;;5041926;28;20221;-67
2022/01/28 09:55:23;;;;;;;36.58;4.85;;;5.30;99.90;;;;;;5042105;28;20220;-63
2022/01/28 09:57:53;;;;;;;15.63;3.80;;;5.40;99.90;;;;;;5041020;28;20770;-67
2022/01/28 10:00:25;;;;;;;11.55;3.45;;;5.30;99.90;;;;;;5040494;28;20285;-63
2022/01/28 10:02:58;;;;;;;14.95;3.63;;;5.30;99.90;;;;;;5041022;28;20206;-64
2022/01/28 10:05:28;;;;;;;22.38;5.72;;;5.40;99.90;;;;;;5042249;28;20216;-62
2022/01/28 10:08:05;;;;;;;23.23;4.22;;;5.50;99.90;;;;;;5043695;28;20225;-65
2022/01/28 10:10:44;;;;;;;16.83;4.85;;;5.50;99.90;;;;;;5044575;28;20205;-62
2022/01/28 10:13:17;;;;;;;13.90;3.50;;;5.50;99.90;;;;;;5044169;28;20219;-66
2022/01/28 10:16:00;;;;;;;8.85;3.25;;;5.50;99.90;;;;;;5044451;28;20236;-62
2022/01/28 10:18:39;;;;;;;19.42;4.68;;;5.60;99.90;;;;;;5044257;28;20294;-64
2022/01/28 10:21:16;;;;;;;20.45;4.22;;;5.60;99.90;;;;;;5044420;28;20201;-64
2022/01/28 10:23:54;;;;;;;12.25;3.95;;;5.60;99.90;;;;;;5042907;28;20292;-64
2022/01/28 10:26:29;;;;;;;18.63;3.85;;;5.70;99.90;;;;;;5043244;28;20201;-63
2022/01/28 10:28:58;;;;;;;13.65;3.47;;;5.70;99.90;;;;;;5043555;28;20201;-63
2022/01/28 10:31:37;;;;;;;13.25;4.00;;;5.70;99.90;;;;;;5043540;28;20581;-64
2022/01/28 10:34:17;;;;;;;21.20;5.78;;;5.70;99.90;;;;;;5043519;28;20294;-68
2022/01/28 10:36:46;;;;;;;18.83;4.32;;;5.80;99.90;;;;;;5044818;28;20655;-64
2022/01/28 10:39:17;;;;;;;15.77;3.75;;;5.80;99.90;;;;;;5044054;28;20221;-65
2022/01/28 10:41:57;;;;;;;15.77;4.07;;;5.90;99.90;;;;;;5043034;28;20212;-63
2022/01/28 10:44:26;;;;;;;24.65;4.50;;;5.90;99.90;;;;;;5044613;28;20227;-64
2022/01/28 10:47:01;;;;;;;18.95;4.53;;;5.90;99.90;;;;;;5043254;28;20312;-67
2022/01/28 10:49:32;;;;;;;16.33;4.03;;;6.00;99.90;;;;;;5042528;28;20205;-66
2022/01/28 10:52:05;;;;;;;7.65;2.47;;;6.00;99.90;;;;;;5042720;28;20214;-65
2022/01/28 10:54:36;;;;;;;14.35;4.28;;;6.00;99.90;;;;;;5043639;28;20407;-65
2022/01/28 10:57:07;;;;;;;18.40;3.70;;;5.90;99.90;;;;;;5043955;28;20332;-65
2022/01/28 10:59:37;;;;;;;10.95;3.35;;;5.90;99.90;;;;;;5051581;28;20197;-64
2022/01/28 11:02:08;;;;;;;11.45;4.25;;;5.90;99.90;;;;;;5050472;28;20600;-65
2022/01/28 11:04:37;;;;;;;11.52;4.35;;;6.00;99.90;;;;;;5050228;28;20799;-66
2022/01/28 11:07:05;;;;;;;19.13;3.05;;;6.10;99.90;;;;;;5044219;28;20222;-65
2022/01/28 11:09:33;;;;;;;13.98;4.50;;;6.10;99.90;;;;;;5043954;28;20212;-65
2022/01/28 11:12:01;;;;;;;12.93;3.83;;;6.10;99.90;;;;;;5043141;28;20205;-66
2022/01/28 11:14:29;;;;;;;7.80;3.17;;;6.10;99.90;;;;;;5042621;28;20236;-64
2022/01/28 11:16:59;;;;;;;10.50;2.58;;;6.20;99.90;;;;;;5043356;28;20498;-64
2022/01/28 11:19:32;;;;;;;17.50;3.30;;;6.20;99.90;;;;;;5044133;28;20297;-64
2022/01/28 11:22:14;;;;;;;13.65;4.85;;;6.20;99.90;;;;;;5055974;28;20188;-63
2022/01/28 11:25:00;;;;;;;13.05;2.50;;;6.30;99.90;;;;;;5065931;28;20250;-63
2022/01/28 11:27:31;;;;;;;22.15;4.50;;;6.30;99.90;;;;;;5041465;28;20280;-65
2022/01/28 11:30:25;;;;;;;16.25;4.72;;;6.40;99.90;;;;;;5042773;28;20226;-64
2022/01/28 11:32:59;;;;;;;13.80;3.67;;;6.40;99.90;;;;;;5040609;28;20232;-64
2022/01/28 11:35:31;;;;;;;9.57;3.40;;;6.50;99.90;;;;;;5040990;28;20223;-66
2022/01/28 11:38:04;;;;;;;13.05;4.22;;;6.50;99.90;;;;;;5040814;28;20688;-64
2022/01/28 11:40:50;;;;;;;13.60;2.70;;;6.50;99.90;;;;;;5040691;28;20394;-66
2022/01/28 11:43:19;;;;;;;17.05;3.75;;;6.60;99.90;;;;;;5041214;28;20197;-65
2022/01/28 11:45:47;;;;;;;9.77;3.13;;;6.60;99.90;;;;;;5040467;28;20680;-66
2022/01/28 11:48:15;;;;;;;17.33;3.53;;;6.60;99.90;;;;;;5041016;28;20316;-65
2022/01/28 11:50:52;;;;;;;15.32;3.15;;;6.70;99.90;;;;;;5040498;28;20259;-64
2022/01/28 11:53:24;;;;;;;9.00;2.67;;;6.70;99.90;;;;;;5039984;28;20244;-65
2022/01/28 11:56:03;;;;;;;10.18;2.63;;;6.70;99.90;;;;;;5039768;28;20202;-64
2022/01/28 11:58:53;;;;;;;16.60;3.30;;;6.70;99.90;;;;;;5039782;28;20471;-65
2022/01/28 12:01:24;;;;;;;12.10;2.55;;;6.70;99.90;;;;;;5038627;28;20202;-66
2022/01/28 12:04:32;;;;;;;14.07;3.60;;;6.70;99.90;;;;;;5038227;28;20228;-68
2022/01/28 12:07:04;;;;;;;11.38;3.83;;;6.70;99.90;;;;;;5020986;28;20222;-68
2022/01/28 12:09:34;;;;;;;12.48;3.08;;;6.80;99.90;;;;;;5021307;28;20241;-68
2022/01/28 12:12:03;;;;;;;14.18;3.58;;;6.80;99.90;;;;;;5020103;28;20202;-67
2022/01/28 12:14:59;;;;;;;20.92;3.13;;;6.80;99.90;;;;;;5020266;28;20227;-68
2022/01/28 12:17:42;;;;;;;16.88;3.45;;;6.80;99.90;;;;;;5021031;28;20229;-67
2022/01/28 12:20:44;;;;;;;8.82;2.45;;;6.80;99.90;;;;;;5020798;28;20221;-67
2022/01/28 12:23:30;;;;;;;9.38;3.25;;;6.80;99.90;;;;;;5021139;28;20451;-71
2022/01/28 12:26:01;;;;;;;11.75;2.60;;;6.90;99.90;;;;;;5021061;28;20210;-70
2022/01/28 12:28:44;;;;;;;18.00;4.40;;;6.90;99.90;;;;;;5021301;28;20298;-67
2022/01/28 12:31:14;;;;;;;11.07;2.70;;;7.00;99.90;;;;;;5020574;28;20277;-69
2022/01/28 12:33:47;;;;;;;18.63;3.70;;;7.00;99.90;;;;;;5021207;28;20321;-66
2022/01/28 12:36:18;;;;;;;14.52;3.70;;;6.90;99.90;;;;;;5021777;28;20301;-68
2022/01/28 12:38:59;;;;;;;7.88;2.80;;;6.90;99.90;;;;;;5021325;28;20280;-64
2022/01/28 12:41:29;;;;;;;14.23;3.50;;;6.90;99.90;;;;;;5024351;28;20210;-67
2022/01/28 12:43:57;;;;;;;11.75;4.03;;;6.90;99.90;;;;;;5032735;28;20270;-66
2022/01/28 12:46:29;;;;;;;12.15;3.40;;;6.90;99.90;;;;;;5034861;28;20213;-65
2022/01/28 12:49:02;;;;;;;11.68;4.20;;;6.90;99.90;;;;;;5034788;28;20277;-66
2022/01/28 12:51:36;;;;;;;11.60;3.90;;;7.00;99.90;;;;;;5036151;28;20262;-66
2022/01/28 12:54:09;;;;;;;9.70;2.95;;;7.00;99.90;;;;;;5028429;28;20309;-67
2022/01/28 12:56:40;;;;;;;19.13;4.25;;;6.90;99.90;;;;;;5023868;28;20236;-67
2022/01/28 12:59:10;;;;;;;17.08;4.65;;;6.90;99.90;;;;;;5021947;28;20238;-67
2022/01/28 13:01:38;;;;;;;10.32;3.75;;;6.90;99.90;;;;;;5022011;28;20208;-70
2022/01/28 13:04:12;;;;;;;12.15;2.72;;;7.00;99.90;;;;;;5021779;28;20207;-69
2022/01/28 13:08:24;;;;;;;17.63;4.47;;;7.00;99.90;;;;;;5021265;28;20208;-68
2022/01/28 13:09:44;;;;;;;17.85;3.63;;;6.90;99.90;;;;;;5021546;28;20208;-66
2022/01/28 13:12:22;;;;;;;18.95;3.72;;;6.90;99.90;;;;;;5021282;28;20210;-69
2022/01/28 13:14:50;;;;;;;13.48;3.65;;;6.90;99.90;;;;;;5021426;28;20307;-66
2022/01/28 13:17:23;;;;;;;14.80;3.97;;;7.00;99.90;;;;;;5020601;28;20233;-67
2022/01/28 13:19:55;;;;;;;14.82;3.83;;;7.00;99.90;;;;;;5021555;28;20285;-67
2022/01/28 13:22:24;;;;;;;9.00;3.88;;;7.10;99.90;;;;;;5020252;28;20226;-67
2022/01/28 13:24:56;;;;;;;9.93;2.95;;;7.10;99.90;;;;;;5019909;28;20194;-69
2022/01/28 13:27:40;;;;;;;14.35;3.47;;;7.10;99.90;;;;;;5039198;28;20221;-68
2022/01/28 13:30:14;;;;;;;24.98;4.25;;;7.00;99.90;;;;;;5040149;28;20277;-69
2022/01/28 13:32:45;;;;;;;12.80;4.15;;;7.10;99.90;;;;;;5039141;28;20285;-66
2022/01/28 13:35:15;;;;;;;18.80;3.80;;;7.20;99.90;;;;;;5040090;28;20217;-64
2022/01/28 13:37:46;;;;;;;15.60;3.50;;;7.10;99.90;;;;;;5039736;28;20745;-66
2022/01/28 13:40:32;;;;;;;20.55;4.18;;;7.00;99.90;;;;;;5040204;28;20211;-66
2022/01/28 13:43:01;;;;;;;15.25;3.33;;;6.90;99.90;;;;;;5040269;28;20887;-67
2022/01/28 13:45:32;;;;;;;18.08;3.80;;;6.90;99.90;;;;;;5040293;28;20201;-67
2022/01/28 13:48:01;;;;;;;19.73;4.20;;;6.90;99.90;;;;;;5040455;28;20312;-67
2022/01/28 13:50:31;;;;;;;18.35;4.82;;;6.90;99.90;;;;;;5043886;28;20198;-67
2022/01/28 13:53:21;;;;;;;17.17;3.80;;;6.90;99.90;;;;;;5064716;28;20226;-62
2022/01/28 13:55:52;;;;;;;17.75;4.45;;;6.90;99.90;;;;;;5046252;28;20296;-63